sensor_id;sensor_type;location;lat;lon;timestamp;P1;durP1;ratioP1;P2;durP2;ratioP2
9771;SDS011;4925;52.588;13.370;2024-03-02T00:00:14;41.47;;;27.50;;
9771;SDS011;4925;52.588;13.370;2024-03-02T00:02:40;46.57;;;29.20;;
9771;SDS011;4925;52.588;13.370;2024-03-02T00:05:10;48.27;;;30.83;;
9771;SDS011;4925;52.588;13.370;2024-03-02T00:07:37;39.90;;;28.43;;
9771;SDS011;4925;52.588;13.370;2024-03-02T00:10:08;41.73;;;29.03;;
9771;SDS011;4925;52.588;13.370;2024-03-02T00:12:39;42.43;;;29.73;;
9771;SDS011;4925;52.588;13.370;2024-03-02T00:15:05;43.07;;;28.13;;
9771;SDS011;4925;52.588;13.370;2024-03-02T00:17:54;39.80;;;27.13;;
9771;SDS011;4925;52.588;13.370;2024-03-02T00:20:23;43.40;;;28.70;;
9771;SDS011;4925;52.588;13.370;2024-03-02T00:22:55;40.10;;;27.40;;
9771;SDS011;4925;52.588;13.370;2024-03-02T00:28:19;40.93;;;27.13;;
9771;SDS011;4925;52.588;13.370;2024-03-02T00:33:32;41.47;;;26.87;;
9771;SDS011;4925;52.588;13.370;2024-03-02T00:36:04;39.93;;;26.00;;
9771;SDS011;4925;52.588;13.370;2024-03-02T00:38:31;37.63;;;25.73;;
9771;SDS011;4925;52.588;13.370;2024-03-02T00:41:04;38.50;;;25.93;;
9771;SDS011;4925;52.588;13.370;2024-03-02T00:43:42;40.60;;;26.17;;
9771;SDS011;4925;52.588;13.370;2024-03-02T00:46:11;44.10;;;26.97;;
9771;SDS011;4925;52.588;13.370;2024-03-02T00:48:38;40.37;;;26.23;;
9771;SDS011;4925;52.588;13.370;2024-03-02T00:51:12;40.37;;;27.17;;
9771;SDS011;4925;52.588;13.370;2024-03-02T00:53:38;37.40;;;26.30;;
9771;SDS011;4925;52.588;13.370;2024-03-02T00:56:04;41.77;;;28.13;;
9771;SDS011;4925;52.588;13.370;2024-03-02T00:58:34;39.93;;;26.53;;
9771;SDS011;4925;52.588;13.370;2024-03-02T01:00:59;43.70;;;27.77;;
9771;SDS011;4925;52.588;13.370;2024-03-02T01:03:25;46.47;;;27.60;;
9771;SDS011;4925;52.588;13.370;2024-03-02T01:05:51;40.23;;;26.23;;
9771;SDS011;4925;52.588;13.370;2024-03-02T01:08:17;38.77;;;26.47;;
9771;SDS011;4925;52.588;13.370;2024-03-02T01:10:43;36.70;;;27.03;;
9771;SDS011;4925;52.588;13.370;2024-03-02T01:13:09;43.03;;;26.47;;
9771;SDS011;4925;52.588;13.370;2024-03-02T01:15:35;37.60;;;26.57;;
9771;SDS011;4925;52.588;13.370;2024-03-02T01:18:01;35.47;;;26.77;;
9771;SDS011;4925;52.588;13.370;2024-03-02T01:20:26;35.23;;;25.33;;
9771;SDS011;4925;52.588;13.370;2024-03-02T01:22:52;41.87;;;27.03;;
9771;SDS011;4925;52.588;13.370;2024-03-02T01:25:18;40.90;;;26.33;;
9771;SDS011;4925;52.588;13.370;2024-03-02T01:27:44;36.47;;;25.80;;
9771;SDS011;4925;52.588;13.370;2024-03-02T01:30:09;40.47;;;26.77;;
9771;SDS011;4925;52.588;13.370;2024-03-02T01:32:37;43.40;;;27.23;;
9771;SDS011;4925;52.588;13.370;2024-03-02T01:35:04;39.00;;;27.10;;
9771;SDS011;4925;52.588;13.370;2024-03-02T01:37:30;37.43;;;25.73;;
9771;SDS011;4925;52.588;13.370;2024-03-02T01:39:56;34.77;;;26.17;;
9771;SDS011;4925;52.588;13.370;2024-03-02T01:42:23;37.17;;;26.00;;
9771;SDS011;4925;52.588;13.370;2024-03-02T01:44:49;39.67;;;25.10;;
9771;SDS011;4925;52.588;13.370;2024-03-02T01:47:15;38.60;;;26.33;;
9771;SDS011;4925;52.588;13.370;2024-03-02T01:49:41;39.87;;;26.43;;
9771;SDS011;4925;52.588;13.370;2024-03-02T01:52:07;39.67;;;26.90;;
9771;SDS011;4925;52.588;13.370;2024-03-02T01:54:35;38.30;;;26.80;;
9771;SDS011;4925;52.588;13.370;2024-03-02T01:57:01;37.47;;;26.30;;
9771;SDS011;4925;52.588;13.370;2024-03-02T01:59:27;40.53;;;25.80;;
9771;SDS011;4925;52.588;13.370;2024-03-02T02:01:53;37.70;;;24.93;;
9771;SDS011;4925;52.588;13.370;2024-03-02T02:04:18;36.63;;;24.90;;
9771;SDS011;4925;52.588;13.370;2024-03-02T02:06:46;37.07;;;25.73;;
9771;SDS011;4925;52.588;13.370;2024-03-02T02:09:12;39.43;;;26.03;;
9771;SDS011;4925;52.588;13.370;2024-03-02T02:11:37;40.00;;;27.07;;
9771;SDS011;4925;52.588;13.370;2024-03-02T02:14:03;37.83;;;25.27;;
9771;SDS011;4925;52.588;13.370;2024-03-02T02:16:31;37.77;;;26.33;;
9771;SDS011;4925;52.588;13.370;2024-03-02T02:18:57;42.27;;;26.53;;
9771;SDS011;4925;52.588;13.370;2024-03-02T02:21:23;36.87;;;26.77;;
9771;SDS011;4925;52.588;13.370;2024-03-02T02:23:48;38.57;;;25.50;;
9771;SDS011;4925;52.588;13.370;2024-03-02T02:26:15;37.63;;;26.13;;
9771;SDS011;4925;52.588;13.370;2024-03-02T02:28:42;41.03;;;26.50;;
9771;SDS011;4925;52.588;13.370;2024-03-02T02:31:12;38.40;;;26.13;;
9771;SDS011;4925;52.588;13.370;2024-03-02T02:33:41;43.13;;;26.17;;
9771;SDS011;4925;52.588;13.370;2024-03-02T02:36:08;34.43;;;24.47;;
9771;SDS011;4925;52.588;13.370;2024-03-02T02:38:36;35.03;;;23.83;;
9771;SDS011;4925;52.588;13.370;2024-03-02T02:41:05;33.77;;;25.00;;
9771;SDS011;4925;52.588;13.370;2024-03-02T02:43:32;34.97;;;25.13;;
9771;SDS011;4925;52.588;13.370;2024-03-02T02:45:58;38.50;;;25.03;;
9771;SDS011;4925;52.588;13.370;2024-03-02T02:48:24;38.20;;;26.57;;
9771;SDS011;4925;52.588;13.370;2024-03-02T02:50:49;38.60;;;25.40;;
9771;SDS011;4925;52.588;13.370;2024-03-02T02:53:15;42.60;;;26.53;;
9771;SDS011;4925;52.588;13.370;2024-03-02T02:55:41;40.00;;;26.87;;
9771;SDS011;4925;52.588;13.370;2024-03-02T02:58:08;41.27;;;27.43;;
9771;SDS011;4925;52.588;13.370;2024-03-02T03:00:34;37.77;;;25.70;;
9771;SDS011;4925;52.588;13.370;2024-03-02T03:03:02;37.67;;;26.70;;
9771;SDS011;4925;52.588;13.370;2024-03-02T03:05:28;32.60;;;24.43;;
9771;SDS011;4925;52.588;13.370;2024-03-02T03:07:54;38.07;;;26.40;;
9771;SDS011;4925;52.588;13.370;2024-03-02T03:10:19;37.53;;;26.23;;
9771;SDS011;4925;52.588;13.370;2024-03-02T03:12:48;37.83;;;26.90;;
9771;SDS011;4925;52.588;13.370;2024-03-02T03:15:14;36.57;;;25.83;;
9771;SDS011;4925;52.588;13.370;2024-03-02T03:17:41;37.63;;;26.17;;
9771;SDS011;4925;52.588;13.370;2024-03-02T03:20:07;38.63;;;26.17;;
9771;SDS011;4925;52.588;13.370;2024-03-02T03:22:36;38.17;;;26.57;;
9771;SDS011;4925;52.588;13.370;2024-03-02T03:25:03;39.53;;;27.27;;
9771;SDS011;4925;52.588;13.370;2024-03-02T03:27:29;35.10;;;25.20;;
9771;SDS011;4925;52.588;13.370;2024-03-02T03:29:55;38.07;;;25.93;;
9771;SDS011;4925;52.588;13.370;2024-03-02T03:32:20;36.80;;;25.63;;
9771;SDS011;4925;52.588;13.370;2024-03-02T03:34:48;38.70;;;27.23;;
9771;SDS011;4925;52.588;13.370;2024-03-02T03:37:14;38.10;;;26.33;;
9771;SDS011;4925;52.588;13.370;2024-03-02T03:39:40;38.20;;;26.70;;
9771;SDS011;4925;52.588;13.370;2024-03-02T03:42:06;38.83;;;25.03;;
9771;SDS011;4925;52.588;13.370;2024-03-02T03:44:32;40.30;;;26.83;;
9771;SDS011;4925;52.588;13.370;2024-03-02T03:46:58;36.50;;;25.93;;
9771;SDS011;4925;52.588;13.370;2024-03-02T03:49:26;36.97;;;26.83;;
9771;SDS011;4925;52.588;13.370;2024-03-02T03:51:51;38.70;;;26.27;;
9771;SDS011;4925;52.588;13.370;2024-03-02T03:54:17;37.03;;;26.50;;
9771;SDS011;4925;52.588;13.370;2024-03-02T03:56:43;36.13;;;26.73;;
9771;SDS011;4925;52.588;13.370;2024-03-02T03:59:09;40.20;;;25.73;;
9771;SDS011;4925;52.588;13.370;2024-03-02T04:01:34;43.07;;;27.00;;
9771;SDS011;4925;52.588;13.370;2024-03-02T04:04:00;34.93;;;26.53;;
9771;SDS011;4925;52.588;13.370;2024-03-02T04:06:29;35.43;;;26.97;;
9771;SDS011;4925;52.588;13.370;2024-03-02T04:08:55;35.53;;;25.87;;
9771;SDS011;4925;52.588;13.370;2024-03-02T04:11:20;41.83;;;28.17;;
9771;SDS011;4925;52.588;13.370;2024-03-02T04:13:47;40.13;;;27.93;;
9771;SDS011;4925;52.588;13.370;2024-03-02T04:16:13;37.40;;;27.97;;
9771;SDS011;4925;52.588;13.370;2024-03-02T04:18:40;38.83;;;27.20;;
9771;SDS011;4925;52.588;13.370;2024-03-02T04:21:06;36.07;;;27.20;;
9771;SDS011;4925;52.588;13.370;2024-03-02T04:23:32;36.23;;;26.73;;
9771;SDS011;4925;52.588;13.370;2024-03-02T04:25:58;36.33;;;26.83;;
9771;SDS011;4925;52.588;13.370;2024-03-02T04:28:24;39.13;;;27.13;;
9771;SDS011;4925;52.588;13.370;2024-03-02T04:30:50;33.27;;;27.00;;
9771;SDS011;4925;52.588;13.370;2024-03-02T04:33:16;37.90;;;27.03;;
9771;SDS011;4925;52.588;13.370;2024-03-02T04:35:41;36.63;;;27.10;;
9771;SDS011;4925;52.588;13.370;2024-03-02T04:38:07;36.63;;;24.80;;
9771;SDS011;4925;52.588;13.370;2024-03-02T04:40:33;40.73;;;26.47;;
9771;SDS011;4925;52.588;13.370;2024-03-02T04:42:58;38.10;;;26.60;;
9771;SDS011;4925;52.588;13.370;2024-03-02T04:45:24;34.50;;;25.60;;
9771;SDS011;4925;52.588;13.370;2024-03-02T04:47:50;38.23;;;27.00;;
9771;SDS011;4925;52.588;13.370;2024-03-02T04:50:16;34.10;;;25.23;;
9771;SDS011;4925;52.588;13.370;2024-03-02T04:52:42;39.60;;;25.50;;
9771;SDS011;4925;52.588;13.370;2024-03-02T04:55:08;31.67;;;23.87;;
9771;SDS011;4925;52.588;13.370;2024-03-02T04:57:52;39.00;;;25.10;;
9771;SDS011;4925;52.588;13.370;2024-03-02T05:00:19;35.87;;;25.63;;
9771;SDS011;4925;52.588;13.370;2024-03-02T05:02:45;38.77;;;25.33;;
9771;SDS011;4925;52.588;13.370;2024-03-02T05:05:11;33.57;;;23.83;;
9771;SDS011;4925;52.588;13.370;2024-03-02T05:07:37;33.13;;;24.43;;
9771;SDS011;4925;52.588;13.370;2024-03-02T05:10:03;31.30;;;24.60;;
9771;SDS011;4925;52.588;13.370;2024-03-02T05:12:30;30.67;;;22.93;;
9771;SDS011;4925;52.588;13.370;2024-03-02T05:15:10;35.57;;;24.23;;
9771;SDS011;4925;52.588;13.370;2024-03-02T05:17:39;33.93;;;24.73;;
9771;SDS011;4925;52.588;13.370;2024-03-02T05:20:05;33.37;;;25.03;;
9771;SDS011;4925;52.588;13.370;2024-03-02T05:22:34;35.67;;;24.17;;
9771;SDS011;4925;52.588;13.370;2024-03-02T05:25:01;31.10;;;24.67;;
9771;SDS011;4925;52.588;13.370;2024-03-02T05:27:27;34.77;;;24.57;;
9771;SDS011;4925;52.588;13.370;2024-03-02T05:29:54;37.17;;;27.17;;
9771;SDS011;4925;52.588;13.370;2024-03-02T05:32:20;38.30;;;25.63;;
9771;SDS011;4925;52.588;13.370;2024-03-02T05:34:46;38.60;;;25.37;;
9771;SDS011;4925;52.588;13.370;2024-03-02T05:37:12;34.00;;;24.63;;
9771;SDS011;4925;52.588;13.370;2024-03-02T05:39:37;36.20;;;25.60;;
9771;SDS011;4925;52.588;13.370;2024-03-02T05:42:04;36.20;;;24.97;;
9771;SDS011;4925;52.588;13.370;2024-03-02T05:44:31;35.13;;;26.90;;
9771;SDS011;4925;52.588;13.370;2024-03-02T05:46:57;33.97;;;24.77;;
9771;SDS011;4925;52.588;13.370;2024-03-02T05:49:23;37.83;;;25.77;;
9771;SDS011;4925;52.588;13.370;2024-03-02T05:51:48;38.23;;;26.27;;
9771;SDS011;4925;52.588;13.370;2024-03-02T05:54:14;39.33;;;26.20;;
9771;SDS011;4925;52.588;13.370;2024-03-02T05:56:40;37.07;;;26.47;;
9771;SDS011;4925;52.588;13.370;2024-03-02T05:59:06;37.27;;;27.67;;
9771;SDS011;4925;52.588;13.370;2024-03-02T06:01:44;41.00;;;29.30;;
9771;SDS011;4925;52.588;13.370;2024-03-02T06:04:17;41.80;;;29.57;;
9771;SDS011;4925;52.588;13.370;2024-03-02T06:06:48;42.63;;;29.23;;
9771;SDS011;4925;52.588;13.370;2024-03-02T06:09:14;45.20;;;29.60;;
9771;SDS011;4925;52.588;13.370;2024-03-02T06:11:41;43.53;;;30.03;;
9771;SDS011;4925;52.588;13.370;2024-03-02T06:14:07;41.93;;;31.27;;
9771;SDS011;4925;52.588;13.370;2024-03-02T06:16:34;46.33;;;31.17;;
9771;SDS011;4925;52.588;13.370;2024-03-02T06:19:00;47.03;;;29.73;;
9771;SDS011;4925;52.588;13.370;2024-03-02T06:21:28;45.87;;;29.93;;
9771;SDS011;4925;52.588;13.370;2024-03-02T06:23:54;45.23;;;30.47;;
9771;SDS011;4925;52.588;13.370;2024-03-02T06:26:21;44.23;;;30.10;;
9771;SDS011;4925;52.588;13.370;2024-03-02T06:28:47;44.00;;;30.67;;
9771;SDS011;4925;52.588;13.370;2024-03-02T06:31:15;47.83;;;30.97;;
9771;SDS011;4925;52.588;13.370;2024-03-02T06:33:41;49.13;;;32.73;;
9771;SDS011;4925;52.588;13.370;2024-03-02T06:36:07;43.83;;;30.47;;
9771;SDS011;4925;52.588;13.370;2024-03-02T06:38:36;45.87;;;30.53;;
9771;SDS011;4925;52.588;13.370;2024-03-02T06:41:01;45.27;;;31.07;;
9771;SDS011;4925;52.588;13.370;2024-03-02T06:43:27;49.20;;;31.67;;
9771;SDS011;4925;52.588;13.370;2024-03-02T06:45:53;48.00;;;31.73;;
9771;SDS011;4925;52.588;13.370;2024-03-02T06:48:19;43.50;;;30.53;;
9771;SDS011;4925;52.588;13.370;2024-03-02T06:50:48;46.53;;;31.07;;
9771;SDS011;4925;52.588;13.370;2024-03-02T06:53:14;44.27;;;30.40;;
9771;SDS011;4925;52.588;13.370;2024-03-02T06:55:46;49.73;;;30.90;;
9771;SDS011;4925;52.588;13.370;2024-03-02T06:58:12;44.27;;;28.97;;
9771;SDS011;4925;52.588;13.370;2024-03-02T07:00:40;40.97;;;28.93;;
9771;SDS011;4925;52.588;13.370;2024-03-02T07:03:05;40.70;;;28.83;;
9771;SDS011;4925;52.588;13.370;2024-03-02T07:05:31;46.93;;;28.67;;
9771;SDS011;4925;52.588;13.370;2024-03-02T07:07:57;43.00;;;28.27;;
9771;SDS011;4925;52.588;13.370;2024-03-02T07:10:22;41.27;;;30.60;;
9771;SDS011;4925;52.588;13.370;2024-03-02T07:12:49;43.63;;;30.60;;
9771;SDS011;4925;52.588;13.370;2024-03-02T07:15:16;44.30;;;28.87;;
9771;SDS011;4925;52.588;13.370;2024-03-02T07:18:08;42.33;;;29.23;;
9771;SDS011;4925;52.588;13.370;2024-03-02T07:20:33;42.77;;;29.47;;
9771;SDS011;4925;52.588;13.370;2024-03-02T07:22:59;41.43;;;30.43;;
9771;SDS011;4925;52.588;13.370;2024-03-02T07:25:24;41.23;;;29.67;;
9771;SDS011;4925;52.588;13.370;2024-03-02T07:27:50;48.40;;;29.87;;
9771;SDS011;4925;52.588;13.370;2024-03-02T07:30:16;43.50;;;28.80;;
9771;SDS011;4925;52.588;13.370;2024-03-02T07:32:42;41.40;;;28.80;;
9771;SDS011;4925;52.588;13.370;2024-03-02T07:35:11;41.23;;;28.97;;
9771;SDS011;4925;52.588;13.370;2024-03-02T07:37:38;45.07;;;29.00;;
9771;SDS011;4925;52.588;13.370;2024-03-02T07:40:04;41.90;;;28.00;;
9771;SDS011;4925;52.588;13.370;2024-03-02T07:42:30;42.27;;;31.03;;
9771;SDS011;4925;52.588;13.370;2024-03-02T07:44:56;42.63;;;29.07;;
9771;SDS011;4925;52.588;13.370;2024-03-02T07:47:23;40.07;;;29.23;;
9771;SDS011;4925;52.588;13.370;2024-03-02T07:49:49;45.43;;;29.90;;
9771;SDS011;4925;52.588;13.370;2024-03-02T07:52:17;42.07;;;28.17;;
9771;SDS011;4925;52.588;13.370;2024-03-02T07:54:42;43.53;;;29.63;;
9771;SDS011;4925;52.588;13.370;2024-03-02T07:57:08;46.43;;;29.57;;
9771;SDS011;4925;52.588;13.370;2024-03-02T07:59:37;42.57;;;29.40;;
9771;SDS011;4925;52.588;13.370;2024-03-02T08:02:03;42.47;;;29.87;;
9771;SDS011;4925;52.588;13.370;2024-03-02T08:04:28;46.27;;;29.60;;
9771;SDS011;4925;52.588;13.370;2024-03-02T08:06:58;47.07;;;30.90;;
9771;SDS011;4925;52.588;13.370;2024-03-02T08:09:24;45.20;;;29.97;;
9771;SDS011;4925;52.588;13.370;2024-03-02T08:11:50;42.90;;;29.27;;
9771;SDS011;4925;52.588;13.370;2024-03-02T08:14:16;41.93;;;28.83;;
9771;SDS011;4925;52.588;13.370;2024-03-02T08:16:42;41.23;;;27.93;;
9771;SDS011;4925;52.588;13.370;2024-03-02T08:19:07;42.17;;;29.77;;
9771;SDS011;4925;52.588;13.370;2024-03-02T08:21:34;44.87;;;28.27;;
9771;SDS011;4925;52.588;13.370;2024-03-02T08:24:00;43.87;;;29.70;;
9771;SDS011;4925;52.588;13.370;2024-03-02T08:26:27;49.77;;;32.27;;
9771;SDS011;4925;52.588;13.370;2024-03-02T08:28:57;45.83;;;29.37;;
9771;SDS011;4925;52.588;13.370;2024-03-02T08:31:23;44.20;;;30.10;;
9771;SDS011;4925;52.588;13.370;2024-03-02T08:33:49;50.17;;;30.40;;
9771;SDS011;4925;52.588;13.370;2024-03-02T08:36:15;44.63;;;31.00;;
9771;SDS011;4925;52.588;13.370;2024-03-02T08:38:43;44.57;;;29.80;;
9771;SDS011;4925;52.588;13.370;2024-03-02T08:41:09;43.57;;;29.77;;
9771;SDS011;4925;52.588;13.370;2024-03-02T08:43:38;41.63;;;29.57;;
9771;SDS011;4925;52.588;13.370;2024-03-02T08:46:05;44.53;;;30.30;;
9771;SDS011;4925;52.588;13.370;2024-03-02T08:48:34;40.37;;;28.80;;
9771;SDS011;4925;52.588;13.370;2024-03-02T08:51:00;44.10;;;29.30;;
9771;SDS011;4925;52.588;13.370;2024-03-02T08:53:26;47.27;;;30.93;;
9771;SDS011;4925;52.588;13.370;2024-03-02T08:55:52;42.50;;;30.90;;
9771;SDS011;4925;52.588;13.370;2024-03-02T09:09:10;46.57;;;29.80;;
9771;SDS011;4925;52.588;13.370;2024-03-02T09:11:36;46.57;;;28.57;;
9771;SDS011;4925;52.588;13.370;2024-03-02T09:14:03;45.80;;;29.07;;
9771;SDS011;4925;52.588;13.370;2024-03-02T09:16:30;43.53;;;29.20;;
9771;SDS011;4925;52.588;13.370;2024-03-02T09:18:56;43.83;;;28.63;;
9771;SDS011;4925;52.588;13.370;2024-03-02T09:21:23;40.00;;;28.30;;
9771;SDS011;4925;52.588;13.370;2024-03-02T09:23:48;38.83;;;27.60;;
9771;SDS011;4925;52.588;13.370;2024-03-02T09:26:14;39.13;;;27.20;;
9771;SDS011;4925;52.588;13.370;2024-03-02T09:28:43;39.60;;;27.43;;
9771;SDS011;4925;52.588;13.370;2024-03-02T09:31:10;42.70;;;26.73;;
9771;SDS011;4925;52.588;13.370;2024-03-02T09:33:37;39.93;;;27.33;;
9771;SDS011;4925;52.588;13.370;2024-03-02T09:36:04;44.47;;;28.80;;
9771;SDS011;4925;52.588;13.370;2024-03-02T09:38:33;42.93;;;27.67;;
9771;SDS011;4925;52.588;13.370;2024-03-02T09:40:59;45.13;;;28.10;;
9771;SDS011;4925;52.588;13.370;2024-03-02T09:43:26;37.67;;;26.53;;
9771;SDS011;4925;52.588;13.370;2024-03-02T09:45:52;39.50;;;26.73;;
9771;SDS011;4925;52.588;13.370;2024-03-02T09:48:19;39.57;;;27.13;;
9771;SDS011;4925;52.588;13.370;2024-03-02T09:50:46;40.63;;;27.63;;
9771;SDS011;4925;52.588;13.370;2024-03-02T09:53:12;41.03;;;27.50;;
9771;SDS011;4925;52.588;13.370;2024-03-02T09:55:39;37.43;;;26.67;;
9771;SDS011;4925;52.588;13.370;2024-03-02T09:58:08;40.33;;;27.47;;
9771;SDS011;4925;52.588;13.370;2024-03-02T10:00:36;38.03;;;26.30;;
9771;SDS011;4925;52.588;13.370;2024-03-02T10:03:02;36.77;;;25.80;;
9771;SDS011;4925;52.588;13.370;2024-03-02T10:05:30;37.73;;;26.77;;
9771;SDS011;4925;52.588;13.370;2024-03-02T10:07:58;36.30;;;26.77;;
9771;SDS011;4925;52.588;13.370;2024-03-02T10:10:48;37.63;;;27.40;;
9771;SDS011;4925;52.588;13.370;2024-03-02T10:13:13;37.27;;;25.50;;
9771;SDS011;4925;52.588;13.370;2024-03-02T10:15:40;32.83;;;23.73;;
9771;SDS011;4925;52.588;13.370;2024-03-02T10:18:10;35.23;;;24.20;;
9771;SDS011;4925;52.588;13.370;2024-03-02T10:20:41;33.20;;;24.10;;
9771;SDS011;4925;52.588;13.370;2024-03-02T10:23:10;34.87;;;24.93;;
9771;SDS011;4925;52.588;13.370;2024-03-02T10:25:37;32.50;;;23.13;;
9771;SDS011;4925;52.588;13.370;2024-03-02T10:28:03;41.33;;;28.23;;
9771;SDS011;4925;52.588;13.370;2024-03-02T10:30:31;32.40;;;23.17;;
9771;SDS011;4925;52.588;13.370;2024-03-02T10:32:57;32.70;;;24.50;;
9771;SDS011;4925;52.588;13.370;2024-03-02T10:35:23;33.90;;;23.93;;
9771;SDS011;4925;52.588;13.370;2024-03-02T10:37:49;32.47;;;23.00;;
9771;SDS011;4925;52.588;13.370;2024-03-02T10:40:17;28.93;;;21.73;;
9771;SDS011;4925;52.588;13.370;2024-03-02T10:42:43;38.60;;;27.80;;
9771;SDS011;4925;52.588;13.370;2024-03-02T10:45:10;40.07;;;27.13;;
9771;SDS011;4925;52.588;13.370;2024-03-02T10:47:40;31.67;;;21.57;;
9771;SDS011;4925;52.588;13.370;2024-03-02T10:50:07;29.03;;;20.33;;
9771;SDS011;4925;52.588;13.370;2024-03-02T10:52:39;28.13;;;20.07;;
9771;SDS011;4925;52.588;13.370;2024-03-02T10:55:11;29.70;;;20.60;;
9771;SDS011;4925;52.588;13.370;2024-03-02T11:00:29;29.37;;;20.50;;
9771;SDS011;4925;52.588;13.370;2024-03-02T11:03:03;28.73;;;21.87;;
9771;SDS011;4925;52.588;13.370;2024-03-02T11:05:36;32.60;;;20.73;;
9771;SDS011;4925;52.588;13.370;2024-03-02T11:08:07;26.93;;;19.50;;
9771;SDS011;4925;52.588;13.370;2024-03-02T11:10:44;29.83;;;20.97;;
9771;SDS011;4925;52.588;13.370;2024-03-02T11:13:12;30.40;;;19.57;;
9771;SDS011;4925;52.588;13.370;2024-03-02T11:15:39;33.60;;;18.53;;
9771;SDS011;4925;52.588;13.370;2024-03-02T11:18:09;25.10;;;17.50;;
9771;SDS011;4925;52.588;13.370;2024-03-02T11:20:36;29.97;;;20.40;;
9771;SDS011;4925;52.588;13.370;2024-03-02T11:23:04;26.40;;;18.57;;
9771;SDS011;4925;52.588;13.370;2024-03-02T11:25:31;26.93;;;18.93;;
9771;SDS011;4925;52.588;13.370;2024-03-02T11:27:59;24.83;;;17.37;;
9771;SDS011;4925;52.588;13.370;2024-03-02T11:33:01;27.87;;;19.80;;
9771;SDS011;4925;52.588;13.370;2024-03-02T11:35:44;37.47;;;23.40;;
9771;SDS011;4925;52.588;13.370;2024-03-02T11:38:15;30.60;;;19.27;;
9771;SDS011;4925;52.588;13.370;2024-03-02T11:40:40;23.57;;;16.97;;
9771;SDS011;4925;52.588;13.370;2024-03-02T11:43:06;23.80;;;17.33;;
9771;SDS011;4925;52.588;13.370;2024-03-02T11:45:36;24.30;;;16.13;;
9771;SDS011;4925;52.588;13.370;2024-03-02T11:48:08;19.13;;;15.20;;
9771;SDS011;4925;52.588;13.370;2024-03-02T11:50:47;22.67;;;15.60;;
9771;SDS011;4925;52.588;13.370;2024-03-02T11:53:14;25.20;;;18.07;;
9771;SDS011;4925;52.588;13.370;2024-03-02T11:55:41;26.77;;;18.57;;
9771;SDS011;4925;52.588;13.370;2024-03-02T11:58:11;19.43;;;14.77;;
9771;SDS011;4925;52.588;13.370;2024-03-02T12:00:45;22.23;;;16.43;;
9771;SDS011;4925;52.588;13.370;2024-03-02T12:03:13;24.20;;;16.67;;
9771;SDS011;4925;52.588;13.370;2024-03-02T12:05:40;31.70;;;19.87;;
9771;SDS011;4925;52.588;13.370;2024-03-02T12:08:09;34.70;;;20.57;;
9771;SDS011;4925;52.588;13.370;2024-03-02T12:10:37;22.50;;;16.30;;
9771;SDS011;4925;52.588;13.370;2024-03-02T12:13:03;21.80;;;14.23;;
9771;SDS011;4925;52.588;13.370;2024-03-02T12:15:32;21.97;;;15.17;;
9771;SDS011;4925;52.588;13.370;2024-03-02T12:17:59;21.00;;;15.73;;
9771;SDS011;4925;52.588;13.370;2024-03-02T12:20:30;21.53;;;16.57;;
9771;SDS011;4925;52.588;13.370;2024-03-02T12:22:58;22.87;;;15.77;;
9771;SDS011;4925;52.588;13.370;2024-03-02T12:25:25;22.77;;;16.10;;
9771;SDS011;4925;52.588;13.370;2024-03-02T12:27:55;21.47;;;15.40;;
9771;SDS011;4925;52.588;13.370;2024-03-02T12:30:22;19.93;;;15.70;;
9771;SDS011;4925;52.588;13.370;2024-03-02T12:32:49;21.07;;;15.63;;
9771;SDS011;4925;52.588;13.370;2024-03-02T12:35:15;22.63;;;14.90;;
9771;SDS011;4925;52.588;13.370;2024-03-02T12:37:46;22.23;;;15.17;;
9771;SDS011;4925;52.588;13.370;2024-03-02T12:40:13;19.03;;;14.40;;
9771;SDS011;4925;52.588;13.370;2024-03-02T12:42:42;19.37;;;14.90;;
9771;SDS011;4925;52.588;13.370;2024-03-02T12:45:08;21.40;;;14.17;;
9771;SDS011;4925;52.588;13.370;2024-03-02T12:47:35;18.10;;;14.03;;
9771;SDS011;4925;52.588;13.370;2024-03-02T12:50:01;17.17;;;13.40;;
9771;SDS011;4925;52.588;13.370;2024-03-02T12:52:28;16.97;;;13.40;;
9771;SDS011;4925;52.588;13.370;2024-03-02T12:54:54;18.30;;;13.70;;
9771;SDS011;4925;52.588;13.370;2024-03-02T12:57:26;17.60;;;12.77;;
9771;SDS011;4925;52.588;13.370;2024-03-02T12:59:57;14.87;;;11.67;;
9771;SDS011;4925;52.588;13.370;2024-03-02T13:02:39;16.27;;;13.37;;
9771;SDS011;4925;52.588;13.370;2024-03-02T13:05:06;18.35;;;12.63;;
9771;SDS011;4925;52.588;13.370;2024-03-02T13:07:36;19.90;;;13.60;;
9771;SDS011;4925;52.588;13.370;2024-03-02T13:10:03;16.55;;;13.73;;
9771;SDS011;4925;52.588;13.370;2024-03-02T13:12:30;16.08;;;12.20;;
9771;SDS011;4925;52.588;13.370;2024-03-02T13:14:57;20.02;;;11.10;;
9771;SDS011;4925;52.588;13.370;2024-03-02T13:17:27;13.35;;;10.38;;
9771;SDS011;4925;52.588;13.370;2024-03-02T13:19:57;15.55;;;11.73;;
9771;SDS011;4925;52.588;13.370;2024-03-02T13:22:25;14.50;;;10.85;;
9771;SDS011;4925;52.588;13.370;2024-03-02T13:24:51;12.95;;;11.30;;
9771;SDS011;4925;52.588;13.370;2024-03-02T13:27:19;14.68;;;11.63;;
9771;SDS011;4925;52.588;13.370;2024-03-02T13:29:46;14.85;;;12.13;;
9771;SDS011;4925;52.588;13.370;2024-03-02T13:32:15;14.68;;;12.57;;
9771;SDS011;4925;52.588;13.370;2024-03-02T13:34:41;16.27;;;13.10;;
9771;SDS011;4925;52.588;13.370;2024-03-02T13:37:07;16.23;;;11.80;;
9771;SDS011;4925;52.588;13.370;2024-03-02T13:39:33;15.48;;;11.45;;
9771;SDS011;4925;52.588;13.370;2024-03-02T13:42:05;16.73;;;12.20;;
9771;SDS011;4925;52.588;13.370;2024-03-02T13:44:41;18.58;;;13.90;;
9771;SDS011;4925;52.588;13.370;2024-03-02T13:47:14;16.98;;;14.07;;
9771;SDS011;4925;52.588;13.370;2024-03-02T13:49:40;14.90;;;12.88;;
9771;SDS011;4925;52.588;13.370;2024-03-02T13:52:10;17.63;;;12.30;;
9771;SDS011;4925;52.588;13.370;2024-03-02T13:54:38;14.93;;;12.85;;
9771;SDS011;4925;52.588;13.370;2024-03-02T13:57:07;16.17;;;12.18;;
9771;SDS011;4925;52.588;13.370;2024-03-02T13:59:34;16.40;;;12.25;;
9771;SDS011;4925;52.588;13.370;2024-03-02T14:02:01;16.45;;;12.80;;
9771;SDS011;4925;52.588;13.370;2024-03-02T14:04:29;16.92;;;12.05;;
9771;SDS011;4925;52.588;13.370;2024-03-02T14:06:58;14.40;;;11.02;;
9771;SDS011;4925;52.588;13.370;2024-03-02T14:09:25;15.90;;;11.80;;
9771;SDS011;4925;52.588;13.370;2024-03-02T14:11:51;16.13;;;12.88;;
9771;SDS011;4925;52.588;13.370;2024-03-02T14:14:17;17.92;;;13.23;;
9771;SDS011;4925;52.588;13.370;2024-03-02T14:16:43;15.63;;;12.25;;
9771;SDS011;4925;52.588;13.370;2024-03-02T14:19:09;16.67;;;13.32;;
9771;SDS011;4925;52.588;13.370;2024-03-02T14:21:35;17.15;;;13.38;;
9771;SDS011;4925;52.588;13.370;2024-03-02T14:24:01;17.98;;;13.10;;
9771;SDS011;4925;52.588;13.370;2024-03-02T14:26:27;15.55;;;12.30;;
9771;SDS011;4925;52.588;13.370;2024-03-02T14:28:53;15.75;;;12.50;;
9771;SDS011;4925;52.588;13.370;2024-03-02T14:31:19;13.93;;;11.45;;
9771;SDS011;4925;52.588;13.370;2024-03-02T14:33:45;17.70;;;12.13;;
9771;SDS011;4925;52.588;13.370;2024-03-02T14:36:11;16.10;;;12.07;;
9771;SDS011;4925;52.588;13.370;2024-03-02T14:38:37;18.40;;;12.07;;
9771;SDS011;4925;52.588;13.370;2024-03-02T14:41:03;16.25;;;11.20;;
9771;SDS011;4925;52.588;13.370;2024-03-02T14:43:29;15.15;;;11.57;;
9771;SDS011;4925;52.588;13.370;2024-03-02T14:45:55;14.27;;;11.40;;
9771;SDS011;4925;52.588;13.370;2024-03-02T14:48:21;16.02;;;10.68;;
9771;SDS011;4925;52.588;13.370;2024-03-02T14:50:47;13.68;;;10.90;;
9771;SDS011;4925;52.588;13.370;2024-03-02T14:53:14;14.07;;;10.32;;
9771;SDS011;4925;52.588;13.370;2024-03-02T14:55:40;13.57;;;10.13;;